Terminal Aerodrome Forecast
Issued by NWS Sioux Falls, SD

Home | Current Version | Previous Version | Text Only | Print | Product List | Glossary On
Versions: 1 2 3 4 5 6 7 8 9 10 11 12 13 14 15 16
000
FTUS43 KFSD 221143 AAA
TAFHON
TAF AMD
KHON 221143Z 2212/2312 11005KT P6SM SCT020
     FM221600 10007KT P6SM SCT200
     FM221800 11008KT P6SM SCT035
     FM231100 13008KT P6SM SCT060=

USA.gov is the U.S. government's official web portal to all federal, state and local government web resources and services.